sensor_id;sensor_type;location;lat;lon;timestamp;pressure;altitude;pressure_sealevel;temperature;humidity
60817;BME280;51921;51.518;-3.188;2022-07-29T00:01:14;101427.32;;;18.00;57.53
60817;BME280;51921;51.518;-3.188;2022-07-29T00:03:34;101430.02;;;17.18;57.84
60817;BME280;51921;51.518;-3.188;2022-07-29T00:06:00;101429.49;;;19.22;53.98
60817;BME280;51921;51.518;-3.188;2022-07-29T00:08:25;101423.51;;;19.66;52.89
60817;BME280;51921;51.518;-3.188;2022-07-29T00:10:51;101422.24;;;19.88;52.41
60817;BME280;51921;51.518;-3.188;2022-07-29T00:13:16;101425.26;;;19.81;51.72
60817;BME280;51921;51.518;-3.188;2022-07-29T00:15:42;101430.50;;;18.20;54.61
60817;BME280;51921;51.518;-3.188;2022-07-29T00:18:07;101428.75;;;14.37;67.20
60817;BME280;51921;51.518;-3.188;2022-07-29T00:20:32;101428.02;;;13.11;75.16
60817;BME280;51921;51.518;-3.188;2022-07-29T00:22:58;101423.61;;;12.70;78.13
60817;BME280;51921;51.518;-3.188;2022-07-29T00:25:23;101424.01;;;13.02;77.86
60817;BME280;51921;51.518;-3.188;2022-07-29T00:27:48;101426.58;;;13.90;75.19
60817;BME280;51921;51.518;-3.188;2022-07-29T00:30:13;101422.39;;;15.80;68.32
60817;BME280;51921;51.518;-3.188;2022-07-29T00:32:39;101421.20;;;16.89;63.79
60817;BME280;51921;51.518;-3.188;2022-07-29T00:35:05;101425.38;;;16.02;63.29
60817;BME280;51921;51.518;-3.188;2022-07-29T00:37:29;101426.59;;;14.59;69.57
60817;BME280;51921;51.518;-3.188;2022-07-29T00:39:55;101425.25;;;15.38;65.93
60817;BME280;51921;51.518;-3.188;2022-07-29T00:42:20;101424.66;;;14.79;67.98
60817;BME280;51921;51.518;-3.188;2022-07-29T00:44:45;101420.63;;;16.72;62.18
60817;BME280;51921;51.518;-3.188;2022-07-29T00:47:11;101426.62;;;17.91;58.69
60817;BME280;51921;51.518;-3.188;2022-07-29T00:49:36;101428.43;;;18.27;56.71
60817;BME280;51921;51.518;-3.188;2022-07-29T00:52:02;101424.30;;;15.36;63.75
60817;BME280;51921;51.518;-3.188;2022-07-29T00:54:27;101423.56;;;16.77;61.54
60817;BME280;51921;51.518;-3.188;2022-07-29T00:56:52;101424.16;;;16.19;60.94
60817;BME280;51921;51.518;-3.188;2022-07-29T00:59:17;101424.94;;;15.74;63.08
60817;BME280;51921;51.518;-3.188;2022-07-29T01:01:42;101422.37;;;16.89;60.11
60817;BME280;51921;51.518;-3.188;2022-07-29T01:04:08;101421.79;;;18.49;55.66
60817;BME280;51921;51.518;-3.188;2022-07-29T01:06:34;101426.87;;;18.39;55.06
60817;BME280;51921;51.518;-3.188;2022-07-29T01:08:59;101426.31;;;18.57;54.45
60817;BME280;51921;51.518;-3.188;2022-07-29T01:11:24;101429.14;;;18.94;53.43
60817;BME280;51921;51.518;-3.188;2022-07-29T01:13:49;101430.02;;;18.92;52.93
60817;BME280;51921;51.518;-3.188;2022-07-29T01:16:20;101427.81;;;18.38;53.47
60817;BME280;51921;51.518;-3.188;2022-07-29T01:18:46;101427.60;;;18.94;52.84
60817;BME280;51921;51.518;-3.188;2022-07-29T01:21:27;101430.50;;;17.86;54.16
60817;BME280;51921;51.518;-3.188;2022-07-29T01:23:48;101429.96;;;18.38;53.85
60817;BME280;51921;51.518;-3.188;2022-07-29T01:26:10;101426.45;;;16.62;56.56
60817;BME280;51921;51.518;-3.188;2022-07-29T01:28:38;101426.57;;;15.60;61.51
60817;BME280;51921;51.518;-3.188;2022-07-29T01:30:51;101425.36;;;14.93;63.48
60817;BME280;51921;51.518;-3.188;2022-07-29T01:33:15;101426.79;;;15.91;62.82
60817;BME280;51921;51.518;-3.188;2022-07-29T01:35:39;101426.84;;;17.58;57.81
60817;BME280;51921;51.518;-3.188;2022-07-29T01:38:09;101426.80;;;18.09;56.29
60817;BME280;51921;51.518;-3.188;2022-07-29T01:40:35;101428.52;;;17.72;55.43
60817;BME280;51921;51.518;-3.188;2022-07-29T01:42:57;101431.93;;;17.85;54.97
60817;BME280;51921;51.518;-3.188;2022-07-29T01:45:23;101433.72;;;18.16;54.37
60817;BME280;51921;51.518;-3.188;2022-07-29T01:47:52;101432.21;;;17.86;54.30
60817;BME280;51921;51.518;-3.188;2022-07-29T01:50:12;101430.63;;;13.86;66.66
60817;BME280;51921;51.518;-3.188;2022-07-29T01:52:39;101430.40;;;12.60;74.16
60817;BME280;51921;51.518;-3.188;2022-07-29T01:55:04;101427.39;;;12.30;76.83
60817;BME280;51921;51.518;-3.188;2022-07-29T01:57:29;101428.61;;;14.03;71.32
60817;BME280;51921;51.518;-3.188;2022-07-29T01:59:52;101426.55;;;16.49;63.14
60817;BME280;51921;51.518;-3.188;2022-07-29T02:02:18;101425.05;;;17.09;60.19
60817;BME280;51921;51.518;-3.188;2022-07-29T02:04:43;101425.14;;;17.24;58.90
60817;BME280;51921;51.518;-3.188;2022-07-29T02:07:10;101425.71;;;15.66;62.08
60817;BME280;51921;51.518;-3.188;2022-07-29T02:09:35;101422.70;;;15.50;62.61
60817;BME280;51921;51.518;-3.188;2022-07-29T02:11:59;101425.02;;;15.96;60.49
60817;BME280;51921;51.518;-3.188;2022-07-29T02:14:24;101422.37;;;17.36;57.85
60817;BME280;51921;51.518;-3.188;2022-07-29T02:16:52;101424.02;;;18.21;55.12
60817;BME280;51921;51.518;-3.188;2022-07-29T02:19:15;101420.73;;;17.76;56.75
60817;BME280;51921;51.518;-3.188;2022-07-29T02:21:40;101419.74;;;16.67;57.96
60817;BME280;51921;51.518;-3.188;2022-07-29T02:24:06;101415.53;;;16.46;59.40
60817;BME280;51921;51.518;-3.188;2022-07-29T02:26:32;101422.53;;;17.39;57.15
60817;BME280;51921;51.518;-3.188;2022-07-29T02:28:57;101424.98;;;18.16;55.76
60817;BME280;51921;51.518;-3.188;2022-07-29T02:31:24;101425.29;;;17.88;54.99
60817;BME280;51921;51.518;-3.188;2022-07-29T02:33:47;101421.45;;;16.15;59.40
60817;BME280;51921;51.518;-3.188;2022-07-29T02:36:12;101417.63;;;16.29;59.32
60817;BME280;51921;51.518;-3.188;2022-07-29T02:38:38;101417.76;;;14.88;64.33
60817;BME280;51921;51.518;-3.188;2022-07-29T02:41:07;101418.37;;;13.60;69.07
60817;BME280;51921;51.518;-3.188;2022-07-29T02:43:30;101421.66;;;14.25;67.74
60817;BME280;51921;51.518;-3.188;2022-07-29T02:45:55;101424.61;;;13.34;72.46
60817;BME280;51921;51.518;-3.188;2022-07-29T02:48:22;101421.08;;;14.53;68.53
60817;BME280;51921;51.518;-3.188;2022-07-29T02:50:47;101418.81;;;15.13;67.84
60817;BME280;51921;51.518;-3.188;2022-07-29T02:53:14;101418.27;;;16.35;62.32
60817;BME280;51921;51.518;-3.188;2022-07-29T02:55:39;101418.30;;;12.31;74.67
60817;BME280;51921;51.518;-3.188;2022-07-29T02:58:02;101415.37;;;11.23;81.69
60817;BME280;51921;51.518;-3.188;2022-07-29T03:00:28;101419.17;;;11.22;84.15
60817;BME280;51921;51.518;-3.188;2022-07-29T03:02:54;101419.41;;;12.08;82.89
60817;BME280;51921;51.518;-3.188;2022-07-29T03:05:19;101421.50;;;14.19;72.92
60817;BME280;51921;51.518;-3.188;2022-07-29T03:07:47;101422.68;;;15.36;67.82
60817;BME280;51921;51.518;-3.188;2022-07-29T03:10:08;101424.13;;;16.60;62.99
60817;BME280;51921;51.518;-3.188;2022-07-29T03:12:33;101425.57;;;16.71;62.30
60817;BME280;51921;51.518;-3.188;2022-07-29T03:14:59;101422.92;;;16.82;61.05
60817;BME280;51921;51.518;-3.188;2022-07-29T03:17:24;101420.56;;;17.07;59.24
60817;BME280;51921;51.518;-3.188;2022-07-29T03:19:50;101420.88;;;17.35;58.20
60817;BME280;51921;51.518;-3.188;2022-07-29T03:22:15;101422.57;;;17.93;56.64
60817;BME280;51921;51.518;-3.188;2022-07-29T03:24:40;101423.65;;;16.70;58.44
60817;BME280;51921;51.518;-3.188;2022-07-29T03:27:06;101427.01;;;14.64;64.02
60817;BME280;51921;51.518;-3.188;2022-07-29T03:29:31;101425.50;;;15.52;63.52
60817;BME280;51921;51.518;-3.188;2022-07-29T03:31:57;101423.48;;;17.18;58.96
60817;BME280;51921;51.518;-3.188;2022-07-29T03:34:22;101424.45;;;17.04;58.28
60817;BME280;51921;51.518;-3.188;2022-07-29T03:36:48;101428.90;;;16.97;57.80
60817;BME280;51921;51.518;-3.188;2022-07-29T03:39:15;101432.29;;;16.45;58.69
60817;BME280;51921;51.518;-3.188;2022-07-29T03:41:39;101437.92;;;14.00;66.05
60817;BME280;51921;51.518;-3.188;2022-07-29T03:44:05;101437.43;;;13.97;66.93
60817;BME280;51921;51.518;-3.188;2022-07-29T03:46:29;101436.74;;;15.36;63.21
60817;BME280;51921;51.518;-3.188;2022-07-29T03:48:57;101436.60;;;14.46;65.25
60817;BME280;51921;51.518;-3.188;2022-07-29T03:51:20;101437.49;;;16.10;61.31
60817;BME280;51921;51.518;-3.188;2022-07-29T03:53:45;101434.88;;;15.54;62.29
60817;BME280;51921;51.518;-3.188;2022-07-29T03:56:12;101433.99;;;15.67;61.63
60817;BME280;51921;51.518;-3.188;2022-07-29T03:58:36;101436.72;;;13.72;66.99
60817;BME280;51921;51.518;-3.188;2022-07-29T04:01:01;101440.37;;;12.77;71.41
60817;BME280;51921;51.518;-3.188;2022-07-29T04:03:26;101439.64;;;12.31;74.34
60817;BME280;51921;51.518;-3.188;2022-07-29T04:05:58;101436.93;;;12.16;75.81
60817;BME280;51921;51.518;-3.188;2022-07-29T04:08:17;101438.87;;;12.16;76.91
60817;BME280;51921;51.518;-3.188;2022-07-29T04:10:42;101443.91;;;11.45;82.09
60817;BME280;51921;51.518;-3.188;2022-07-29T04:13:08;101445.66;;;13.56;75.01
60817;BME280;51921;51.518;-3.188;2022-07-29T04:15:33;101446.65;;;14.67;69.00
60817;BME280;51921;51.518;-3.188;2022-07-29T04:17:59;101445.05;;;15.25;67.02
60817;BME280;51921;51.518;-3.188;2022-07-29T04:20:24;101445.90;;;16.36;61.42
60817;BME280;51921;51.518;-3.188;2022-07-29T04:22:49;101443.65;;;17.28;59.14
60817;BME280;51921;51.518;-3.188;2022-07-29T04:25:14;101449.58;;;16.84;59.45
60817;BME280;51921;51.518;-3.188;2022-07-29T04:27:40;101453.36;;;16.62;59.32
60817;BME280;51921;51.518;-3.188;2022-07-29T04:30:06;101459.06;;;16.70;58.83
60817;BME280;51921;51.518;-3.188;2022-07-29T04:32:30;101464.99;;;16.45;59.09
60817;BME280;51921;51.518;-3.188;2022-07-29T04:34:56;101462.47;;;15.81;60.51
60817;BME280;51921;51.518;-3.188;2022-07-29T04:37:21;101466.83;;;15.22;62.76
60817;BME280;51921;51.518;-3.188;2022-07-29T04:39:47;101469.86;;;15.32;62.58
60817;BME280;51921;51.518;-3.188;2022-07-29T04:42:12;101473.38;;;16.31;60.70
60817;BME280;51921;51.518;-3.188;2022-07-29T04:44:38;101466.66;;;16.53;60.12
60817;BME280;51921;51.518;-3.188;2022-07-29T04:47:08;101468.90;;;16.92;58.33
60817;BME280;51921;51.518;-3.188;2022-07-29T04:49:29;101468.28;;;16.77;58.44
60817;BME280;51921;51.518;-3.188;2022-07-29T04:51:54;101472.88;;;16.59;58.71
60817;BME280;51921;51.518;-3.188;2022-07-29T04:54:20;101473.58;;;16.81;58.15
60817;BME280;51921;51.518;-3.188;2022-07-29T04:56:45;101471.47;;;16.76;57.49
60817;BME280;51921;51.518;-3.188;2022-07-29T04:59:11;101468.86;;;17.90;55.86
60817;BME280;51921;51.518;-3.188;2022-07-29T05:01:37;101465.73;;;17.07;56.91
60817;BME280;51921;51.518;-3.188;2022-07-29T05:04:02;101466.42;;;16.94;57.20
60817;BME280;51921;51.518;-3.188;2022-07-29T05:06:27;101464.82;;;15.65;59.59
60817;BME280;51921;51.518;-3.188;2022-07-29T05:08:53;101465.16;;;16.73;57.78
60817;BME280;51921;51.518;-3.188;2022-07-29T05:11:18;101465.74;;;15.89;59.67
60817;BME280;51921;51.518;-3.188;2022-07-29T05:13:44;101468.19;;;12.19;72.24
60817;BME280;51921;51.518;-3.188;2022-07-29T05:16:09;101472.97;;;10.56;81.63
60817;BME280;51921;51.518;-3.188;2022-07-29T05:18:35;101474.94;;;11.03;83.39
60817;BME280;51921;51.518;-3.188;2022-07-29T05:21:00;101476.95;;;9.86;87.23
60817;BME280;51921;51.518;-3.188;2022-07-29T05:23:26;101473.21;;;11.06;87.56
60817;BME280;51921;51.518;-3.188;2022-07-29T05:25:51;101473.52;;;11.57;82.41
60817;BME280;51921;51.518;-3.188;2022-07-29T05:28:16;101475.38;;;11.85;81.12
60817;BME280;51921;51.518;-3.188;2022-07-29T05:30:42;101476.97;;;11.05;85.54
60817;BME280;51921;51.518;-3.188;2022-07-29T05:33:08;101478.70;;;10.92;85.19
60817;BME280;51921;51.518;-3.188;2022-07-29T05:35:33;101481.98;;;11.36;84.73
60817;BME280;51921;51.518;-3.188;2022-07-29T05:37:58;101484.56;;;12.33;81.68
60817;BME280;51921;51.518;-3.188;2022-07-29T05:40:24;101486.06;;;13.42;76.01
60817;BME280;51921;51.518;-3.188;2022-07-29T05:42:49;101482.85;;;12.41;78.89
60817;BME280;51921;51.518;-3.188;2022-07-29T05:45:15;101481.67;;;11.90;83.05
60817;BME280;51921;51.518;-3.188;2022-07-29T05:47:40;101480.22;;;11.51;86.63
60817;BME280;51921;51.518;-3.188;2022-07-29T05:50:06;101481.90;;;11.12;87.72
60817;BME280;51921;51.518;-3.188;2022-07-29T05:52:30;101488.95;;;11.58;86.15
60817;BME280;51921;51.518;-3.188;2022-07-29T05:54:56;101496.69;;;10.88;89.43
60817;BME280;51921;51.518;-3.188;2022-07-29T05:57:23;101504.84;;;11.81;86.79
60817;BME280;51921;51.518;-3.188;2022-07-29T05:59:48;101511.78;;;11.58;86.35
60817;BME280;51921;51.518;-3.188;2022-07-29T06:02:12;101518.68;;;12.01;84.46
60817;BME280;51921;51.518;-3.188;2022-07-29T06:04:38;101515.51;;;12.86;80.31
60817;BME280;51921;51.518;-3.188;2022-07-29T06:07:03;101518.08;;;11.94;84.61
60817;BME280;51921;51.518;-3.188;2022-07-29T06:09:29;101517.15;;;12.46;80.86
60817;BME280;51921;51.518;-3.188;2022-07-29T06:11:54;101517.16;;;12.95;80.79
60817;BME280;51921;51.518;-3.188;2022-07-29T06:14:20;101518.63;;;12.66;82.06
60817;BME280;51921;51.518;-3.188;2022-07-29T06:16:45;101519.81;;;15.05;76.42
60817;BME280;51921;51.518;-3.188;2022-07-29T06:19:11;101518.89;;;16.11;70.16
60817;BME280;51921;51.518;-3.188;2022-07-29T06:21:36;101523.52;;;16.68;68.24
60817;BME280;51921;51.518;-3.188;2022-07-29T06:24:02;101528.78;;;14.97;73.23
60817;BME280;51921;51.518;-3.188;2022-07-29T06:26:28;101530.79;;;15.85;68.48
60817;BME280;51921;51.518;-3.188;2022-07-29T06:28:53;101535.38;;;15.22;70.04
60817;BME280;51921;51.518;-3.188;2022-07-29T06:31:18;101538.50;;;14.11;73.66
60817;BME280;51921;51.518;-3.188;2022-07-29T06:33:43;101537.18;;;13.63;77.50
60817;BME280;51921;51.518;-3.188;2022-07-29T06:36:09;101533.82;;;13.22;79.05
60817;BME280;51921;51.518;-3.188;2022-07-29T06:38:34;101529.75;;;12.72;79.62
60817;BME280;51921;51.518;-3.188;2022-07-29T06:41:00;101534.75;;;12.74;83.01
60817;BME280;51921;51.518;-3.188;2022-07-29T06:43:25;101535.16;;;11.92;88.02
60817;BME280;51921;51.518;-3.188;2022-07-29T06:45:50;101535.30;;;14.09;79.86
60817;BME280;51921;51.518;-3.188;2022-07-29T06:48:15;101537.94;;;12.88;82.73
60817;BME280;51921;51.518;-3.188;2022-07-29T06:50:41;101541.26;;;12.80;83.57
60817;BME280;51921;51.518;-3.188;2022-07-29T06:53:06;101535.71;;;13.27;82.63
60817;BME280;51921;51.518;-3.188;2022-07-29T06:55:32;101532.67;;;13.33;81.78
60817;BME280;51921;51.518;-3.188;2022-07-29T06:57:57;101539.63;;;14.63;77.23
60817;BME280;51921;51.518;-3.188;2022-07-29T07:00:22;101542.22;;;13.87;78.67
60817;BME280;51921;51.518;-3.188;2022-07-29T07:02:48;101542.77;;;12.64;81.16
60817;BME280;51921;51.518;-3.188;2022-07-29T07:05:13;101539.62;;;13.18;82.98
60817;BME280;51921;51.518;-3.188;2022-07-29T07:07:38;101543.44;;;13.05;83.12
60817;BME280;51921;51.518;-3.188;2022-07-29T07:10:04;101540.45;;;13.40;81.21
60817;BME280;51921;51.518;-3.188;2022-07-29T07:12:29;101539.26;;;13.09;82.93
60817;BME280;51921;51.518;-3.188;2022-07-29T07:14:55;101538.67;;;12.42;86.74
60817;BME280;51921;51.518;-3.188;2022-07-29T07:17:20;101533.41;;;14.05;80.25
60817;BME280;51921;51.518;-3.188;2022-07-29T07:19:46;101534.21;;;13.60;79.68
60817;BME280;51921;51.518;-3.188;2022-07-29T07:22:11;101534.31;;;13.79;81.19
60817;BME280;51921;51.518;-3.188;2022-07-29T07:24:36;101530.27;;;15.36;74.32
60817;BME280;51921;51.518;-3.188;2022-07-29T07:27:01;101533.61;;;14.62;76.68
60817;BME280;51921;51.518;-3.188;2022-07-29T07:29:27;101532.31;;;14.37;78.54
60817;BME280;51921;51.518;-3.188;2022-07-29T07:31:52;101529.57;;;16.16;68.54
60817;BME280;51921;51.518;-3.188;2022-07-29T07:34:17;101533.31;;;20.00;56.95
60817;BME280;51921;51.518;-3.188;2022-07-29T07:36:43;101532.16;;;23.46;46.78
60817;BME280;51921;51.518;-3.188;2022-07-29T07:39:08;101534.11;;;16.82;60.83
60817;BME280;51921;51.518;-3.188;2022-07-29T07:41:33;101537.48;;;16.04;64.25
60817;BME280;51921;51.518;-3.188;2022-07-29T07:43:58;101538.12;;;21.67;50.57
60817;BME280;51921;51.518;-3.188;2022-07-29T07:46:24;101538.61;;;24.33;42.38
60817;BME280;51921;51.518;-3.188;2022-07-29T07:48:50;101537.41;;;25.36;39.59
60817;BME280;51921;51.518;-3.188;2022-07-29T07:51:15;101543.77;;;28.54;33.68
60817;BME280;51921;51.518;-3.188;2022-07-29T07:53:41;101541.44;;;27.99;33.11
60817;BME280;51921;51.518;-3.188;2022-07-29T07:56:06;101544.96;;;28.29;33.12
60817;BME280;51921;51.518;-3.188;2022-07-29T07:58:31;101543.03;;;27.76;33.26
60817;BME280;51921;51.518;-3.188;2022-07-29T08:00:57;101545.27;;;29.09;31.42
60817;BME280;51921;51.518;-3.188;2022-07-29T08:03:23;101542.55;;;28.00;32.77
60817;BME280;51921;51.518;-3.188;2022-07-29T08:05:48;101541.85;;;27.88;32.59
60817;BME280;51921;51.518;-3.188;2022-07-29T08:08:13;101538.47;;;24.21;39.27
60817;BME280;51921;51.518;-3.188;2022-07-29T08:10:39;101539.56;;;21.62;42.05
60817;BME280;51921;51.518;-3.188;2022-07-29T08:13:05;101541.82;;;26.71;35.83
60817;BME280;51921;51.518;-3.188;2022-07-29T08:15:30;101545.61;;;28.15;32.73
60817;BME280;51921;51.518;-3.188;2022-07-29T08:17:55;101542.09;;;25.58;36.02
60817;BME280;51921;51.518;-3.188;2022-07-29T08:20:20;101538.77;;;26.25;35.23
60817;BME280;51921;51.518;-3.188;2022-07-29T08:22:46;101536.73;;;26.02;34.76
60817;BME280;51921;51.518;-3.188;2022-07-29T08:25:11;101532.40;;;27.41;33.97
60817;BME280;51921;51.518;-3.188;2022-07-29T08:27:36;101532.54;;;30.08;30.29
60817;BME280;51921;51.518;-3.188;2022-07-29T08:30:01;101535.83;;;29.23;30.92
60817;BME280;51921;51.518;-3.188;2022-07-29T08:32:27;101534.65;;;28.99;31.73
60817;BME280;51921;51.518;-3.188;2022-07-29T08:34:52;101538.06;;;29.77;29.73
60817;BME280;51921;51.518;-3.188;2022-07-29T08:37:18;101536.58;;;29.92;28.61
60817;BME280;51921;51.518;-3.188;2022-07-29T08:39:43;101532.44;;;29.99;28.97
60817;BME280;51921;51.518;-3.188;2022-07-29T08:42:08;101532.66;;;28.84;30.58
60817;BME280;51921;51.518;-3.188;2022-07-29T08:44:33;101531.34;;;30.13;29.28
60817;BME280;51921;51.518;-3.188;2022-07-29T08:46:59;101532.67;;;18.00;49.91
60817;BME280;51921;51.518;-3.188;2022-07-29T08:49:24;101533.60;;;23.17;41.65
60817;BME280;51921;51.518;-3.188;2022-07-29T08:51:49;101531.44;;;23.86;40.29
60817;BME280;51921;51.518;-3.188;2022-07-29T08:54:17;101532.80;;;26.34;36.47
60817;BME280;51921;51.518;-3.188;2022-07-29T08:56:40;101534.76;;;27.68;35.24
60817;BME280;51921;51.518;-3.188;2022-07-29T08:59:06;101537.50;;;28.58;32.13
60817;BME280;51921;51.518;-3.188;2022-07-29T09:01:32;101540.99;;;28.44;34.12
60817;BME280;51921;51.518;-3.188;2022-07-29T09:03:56;101542.80;;;28.17;32.69
60817;BME280;51921;51.518;-3.188;2022-07-29T09:06:21;101539.38;;;29.60;30.84
60817;BME280;51921;51.518;-3.188;2022-07-29T09:08:47;101540.99;;;21.60;41.54
60817;BME280;51921;51.518;-3.188;2022-07-29T09:11:12;101538.90;;;25.88;37.52
60817;BME280;51921;51.518;-3.188;2022-07-29T09:13:37;101540.26;;;25.60;37.08
60817;BME280;51921;51.518;-3.188;2022-07-29T09:16:03;101542.82;;;24.86;38.56
60817;BME280;51921;51.518;-3.188;2022-07-29T09:18:34;101547.37;;;17.75;53.45
60817;BME280;51921;51.518;-3.188;2022-07-29T09:20:53;101545.31;;;20.82;50.05
60817;BME280;51921;51.518;-3.188;2022-07-29T09:23:18;101550.01;;;23.21;42.33
60817;BME280;51921;51.518;-3.188;2022-07-29T09:25:43;101549.74;;;24.91;39.23
60817;BME280;51921;51.518;-3.188;2022-07-29T09:28:10;101551.73;;;24.43;37.86
60817;BME280;51921;51.518;-3.188;2022-07-29T09:30:34;101550.84;;;24.72;36.54
60817;BME280;51921;51.518;-3.188;2022-07-29T09:33:01;101549.14;;;22.03;40.12
60817;BME280;51921;51.518;-3.188;2022-07-29T09:35:26;101552.62;;;17.76;51.12
60817;BME280;51921;51.518;-3.188;2022-07-29T09:37:50;101558.30;;;19.10;49.61
60817;BME280;51921;51.518;-3.188;2022-07-29T09:40:18;101557.03;;;22.24;41.42
60817;BME280;51921;51.518;-3.188;2022-07-29T09:42:40;101561.31;;;23.82;37.63
60817;BME280;51921;51.518;-3.188;2022-07-29T09:45:06;101564.38;;;24.46;35.67
60817;BME280;51921;51.518;-3.188;2022-07-29T09:47:41;101559.88;;;22.20;37.34
60817;BME280;51921;51.518;-3.188;2022-07-29T09:49:57;101561.37;;;23.78;36.75
60817;BME280;51921;51.518;-3.188;2022-07-29T09:52:21;101560.21;;;24.32;35.26
60817;BME280;51921;51.518;-3.188;2022-07-29T09:54:47;101561.55;;;23.97;35.78
60817;BME280;51921;51.518;-3.188;2022-07-29T09:57:23;101559.88;;;22.06;36.63
60817;BME280;51921;51.518;-3.188;2022-07-29T09:59:38;101556.63;;;21.63;37.10
60817;BME280;51921;51.518;-3.188;2022-07-29T10:02:11;101557.58;;;23.25;37.02
60817;BME280;51921;51.518;-3.188;2022-07-29T10:04:39;101564.54;;;23.81;35.55
60817;BME280;51921;51.518;-3.188;2022-07-29T10:06:57;101563.58;;;20.58;41.07
60817;BME280;51921;51.518;-3.188;2022-07-29T10:09:20;101565.39;;;22.37;36.81
60817;BME280;51921;51.518;-3.188;2022-07-29T10:14:11;101564.91;;;18.43;44.54
60817;BME280;51921;51.518;-3.188;2022-07-29T10:16:37;101566.35;;;20.06;44.11
60817;BME280;51921;51.518;-3.188;2022-07-29T10:19:02;101564.06;;;20.23;41.50
60817;BME280;51921;51.518;-3.188;2022-07-29T10:21:27;101563.26;;;17.63;45.95
60817;BME280;51921;51.518;-3.188;2022-07-29T10:23:53;101564.02;;;20.70;42.83
60817;BME280;51921;51.518;-3.188;2022-07-29T10:26:19;101564.84;;;22.83;38.86
60817;BME280;51921;51.518;-3.188;2022-07-29T10:28:44;101566.73;;;20.38;42.17
60817;BME280;51921;51.518;-3.188;2022-07-29T10:31:15;101566.46;;;18.35;45.70
60817;BME280;51921;51.518;-3.188;2022-07-29T10:33:47;101565.75;;;19.37;45.29
60817;BME280;51921;51.518;-3.188;2022-07-29T10:36:09;101557.95;;;21.14;40.97
60817;BME280;51921;51.518;-3.188;2022-07-29T10:38:39;101558.14;;;21.56;39.83
60817;BME280;51921;51.518;-3.188;2022-07-29T10:40:57;101553.30;;;23.08;37.19
60817;BME280;51921;51.518;-3.188;2022-07-29T10:43:19;101552.82;;;22.68;38.33
60817;BME280;51921;51.518;-3.188;2022-07-29T10:45:41;101553.89;;;23.14;35.38
60817;BME280;51921;51.518;-3.188;2022-07-29T10:48:07;101551.51;;;25.08;31.91
60817;BME280;51921;51.518;-3.188;2022-07-29T10:52:58;101548.92;;;18.86;37.01
60817;BME280;51921;51.518;-3.188;2022-07-29T10:55:33;101545.60;;;20.67;37.64
60817;BME280;51921;51.518;-3.188;2022-07-29T11:00:26;101544.28;;;23.31;34.82
60817;BME280;51921;51.518;-3.188;2022-07-29T11:02:42;101539.30;;;22.46;36.52
60817;BME280;51921;51.518;-3.188;2022-07-29T11:05:07;101532.64;;;23.45;34.29
60817;BME280;51921;51.518;-3.188;2022-07-29T11:07:30;101524.61;;;21.54;39.38
60817;BME280;51921;51.518;-3.188;2022-07-29T11:14:56;101520.35;;;22.69;37.24
60817;BME280;51921;51.518;-3.188;2022-07-29T11:17:12;101522.24;;;22.53;36.16
60817;BME280;51921;51.518;-3.188;2022-07-29T11:19:37;101524.25;;;24.38;33.80
60817;BME280;51921;51.518;-3.188;2022-07-29T11:22:02;101516.38;;;22.33;36.61
60817;BME280;51921;51.518;-3.188;2022-07-29T11:24:29;101513.45;;;20.07;38.69
60817;BME280;51921;51.518;-3.188;2022-07-29T11:27:06;101507.29;;;21.03;38.34
60817;BME280;51921;51.518;-3.188;2022-07-29T11:29:20;101509.18;;;22.15;36.68
60817;BME280;51921;51.518;-3.188;2022-07-29T11:31:45;101509.12;;;23.53;35.44
60817;BME280;51921;51.518;-3.188;2022-07-29T11:34:18;101513.66;;;23.23;37.74
60817;BME280;51921;51.518;-3.188;2022-07-29T11:36:34;101517.04;;;20.97;39.59
60817;BME280;51921;51.518;-3.188;2022-07-29T11:41:25;101519.57;;;21.92;38.72
60817;BME280;51921;51.518;-3.188;2022-07-29T11:43:51;101525.67;;;19.23;43.77
60817;BME280;51921;51.518;-3.188;2022-07-29T11:48:43;101524.02;;;20.47;43.70
60817;BME280;51921;51.518;-3.188;2022-07-29T11:51:10;101529.64;;;22.37;41.13
60817;BME280;51921;51.518;-3.188;2022-07-29T11:53:33;101533.84;;;23.52;38.98
60817;BME280;51921;51.518;-3.188;2022-07-29T11:55:59;101534.84;;;20.07;42.58
60817;BME280;51921;51.518;-3.188;2022-07-29T11:58:23;101530.63;;;23.28;39.16
60817;BME280;51921;51.518;-3.188;2022-07-29T12:00:48;101533.22;;;23.86;36.86
60817;BME280;51921;51.518;-3.188;2022-07-29T12:03:23;101535.37;;;23.62;36.46
60817;BME280;51921;51.518;-3.188;2022-07-29T12:05:41;101536.71;;;24.47;35.50
60817;BME280;51921;51.518;-3.188;2022-07-29T12:08:06;101535.98;;;19.25;42.47
60817;BME280;51921;51.518;-3.188;2022-07-29T12:10:30;101535.64;;;22.49;39.65
60817;BME280;51921;51.518;-3.188;2022-07-29T12:12:55;101530.69;;;23.91;35.68
60817;BME280;51921;51.518;-3.188;2022-07-29T12:15:22;101527.93;;;21.22;39.51
60817;BME280;51921;51.518;-3.188;2022-07-29T12:17:46;101522.65;;;20.45;41.28
60817;BME280;51921;51.518;-3.188;2022-07-29T12:20:11;101518.43;;;20.42;41.97
60817;BME280;51921;51.518;-3.188;2022-07-29T12:22:38;101510.47;;;22.72;38.14
60817;BME280;51921;51.518;-3.188;2022-07-29T12:25:03;101517.63;;;23.30;36.89
60817;BME280;51921;51.518;-3.188;2022-07-29T12:27:27;101518.14;;;23.77;36.20
60817;BME280;51921;51.518;-3.188;2022-07-29T12:29:56;101520.52;;;24.76;35.16
60817;BME280;51921;51.518;-3.188;2022-07-29T12:32:18;101518.37;;;25.14;33.25
60817;BME280;51921;51.518;-3.188;2022-07-29T12:34:43;101523.91;;;25.17;32.98
60817;BME280;51921;51.518;-3.188;2022-07-29T12:37:09;101525.91;;;25.09;32.33
60817;BME280;51921;51.518;-3.188;2022-07-29T12:39:33;101516.95;;;24.77;32.23
60817;BME280;51921;51.518;-3.188;2022-07-29T12:41:58;101504.70;;;25.13;32.23
60817;BME280;51921;51.518;-3.188;2022-07-29T12:44:24;101506.48;;;24.93;33.52
60817;BME280;51921;51.518;-3.188;2022-07-29T12:49:20;101516.19;;;24.76;31.77